RJNW(METAR)
07/17 15:00
METAR RJNW 170600Z 10007KT 060V120 9999 FEW010 BKN015 24/20 Q1013
RMK 1CU010 5CU015 A2992=
戻る
トップページへ戻る
IMOC Co,.Ltd.